Sewaren, NJ (07077)

8:38 PM EDT on May 05, 2015 (GMT -0400)
Town Hall Woodbridge | | Change Station
CLOSE
Current Station
Personal Weather Station
Location: Woodbridge Township, NJ
Elevation: 23 ft
Nearby Weather Stations

Elev 23 ft 40.56 °N, 74.27 °W | Updated 7 seconds ago

Overcast
Overcast
72.1 °F
Feels Like 76 °F
N
0.0
Wind Variable Wind from East
Gusts 1.0 mph

Today
High -- | Low -- °F
--% Chance of Precip.
Yesterday
High -- | Low -- °F
Precip. -- in
5:51 AM 7:56 PM
Waning Gibbous, 96% visible
Pressure 30.17 in
Visibility 10.0 miles
Clouds Scattered Clouds 10000 ft
Overcast 12000 ft
Heat Index 76 °F
Dew Point 56 °F
Humidity 57%
Rainfall 0.00 in
Snow Depth Not available.
UV 0 out of 12
Pollen 10.00 out of 12
Air Quality Not available.
Flu Activity Local Activity
METAR KLDJ 060015Z AUTO 00000KT 10SM SCT100 OVC120 26/14 A3017 RMK AO2 T02550137

More Conditions Fewer Conditions

Pressure 30.17 in
Visibility 10.0 miles
Clouds Scattered Clouds 10000 ft
Overcast 12000 ft
Heat Index 76 °F
Dew Point 56 °F
Humidity 57%
Rainfall 0.00 in
Snow Depth Not available.
UV 0 out of 12
Pollen 10.00 out of 12
Air Quality Not available.
Flu Activity Local Activity
METAR KLDJ 060015Z AUTO 00000KT 10SM SCT100 OVC120 26/14 A3017 RMK AO2 T02550137

More Conditions Fewer Conditions

10-Day Weather Forecast

Almanac

Astronomy

May. 05, 2015 Rise Set
Actual Time
Civil Twilight
Nautical Twilight
Astronomical Twilight
Moon
Length of Visible Light
Length of Day
Tomorrow will be .
, % of the Moon is Illuminated

Today's Extremes

State Highs State Lows

Community

WunderPhotos

Upload Photos

1,819,024 photos uploaded!

WunderBlogs® & News

Nearby

Air Quality

  Air Quality AQ Index Pollutant
Not available.

Snow Depth

Station Depth Elevation

Earthquake Activity

City Distance Mag. Time & Date
Minimum magnitude displayed is 2.5.

Coastal Water Temperatures

Place Temperature

Stations

Nearby Weather Stations

Station Location Temp. Windchill Dew Point Humidity Wind Precip. Elev Updated Type